sensor_id;sensor_type;location;lat;lon;timestamp;P1;durP1;ratioP1;P2;durP2;ratioP2
16403;SDS011;8311;50.158;8.642;2024-03-08T00:02:41;5.63;;;3.95;;
16403;SDS011;8311;50.158;8.642;2024-03-08T00:05:35;5.93;;;3.80;;
16403;SDS011;8311;50.158;8.642;2024-03-08T00:08:30;5.90;;;3.95;;
16403;SDS011;8311;50.158;8.642;2024-03-08T00:11:25;5.22;;;3.80;;
16403;SDS011;8311;50.158;8.642;2024-03-08T00:14:19;6.88;;;4.13;;
16403;SDS011;8311;50.158;8.642;2024-03-08T00:17:13;7.10;;;4.28;;
16403;SDS011;8311;50.158;8.642;2024-03-08T00:20:08;6.57;;;4.05;;
16403;SDS011;8311;50.158;8.642;2024-03-08T00:23:01;5.63;;;3.83;;
16403;SDS011;8311;50.158;8.642;2024-03-08T00:25:54;5.60;;;3.47;;
16403;SDS011;8311;50.158;8.642;2024-03-08T00:28:49;5.20;;;3.45;;
16403;SDS011;8311;50.158;8.642;2024-03-08T00:31:43;5.45;;;3.90;;
16403;SDS011;8311;50.158;8.642;2024-03-08T00:34:36;8.13;;;4.18;;
16403;SDS011;8311;50.158;8.642;2024-03-08T00:37:29;5.90;;;4.03;;
16403;SDS011;8311;50.158;8.642;2024-03-08T00:40:22;6.75;;;3.90;;
16403;SDS011;8311;50.158;8.642;2024-03-08T00:43:15;5.30;;;3.67;;
16403;SDS011;8311;50.158;8.642;2024-03-08T00:46:09;6.22;;;4.15;;
16403;SDS011;8311;50.158;8.642;2024-03-08T00:49:03;6.38;;;3.80;;
16403;SDS011;8311;50.158;8.642;2024-03-08T00:51:58;6.45;;;4.07;;
16403;SDS011;8311;50.158;8.642;2024-03-08T00:54:51;6.82;;;3.85;;
16403;SDS011;8311;50.158;8.642;2024-03-08T00:57:44;7.38;;;4.35;;
16403;SDS011;8311;50.158;8.642;2024-03-08T01:00:38;5.85;;;3.90;;
16403;SDS011;8311;50.158;8.642;2024-03-08T01:03:32;6.75;;;4.28;;
16403;SDS011;8311;50.158;8.642;2024-03-08T01:06:26;5.47;;;3.75;;
16403;SDS011;8311;50.158;8.642;2024-03-08T01:09:19;6.20;;;4.00;;
16403;SDS011;8311;50.158;8.642;2024-03-08T01:12:13;7.30;;;3.97;;
16403;SDS011;8311;50.158;8.642;2024-03-08T01:15:08;6.22;;;3.92;;
16403;SDS011;8311;50.158;8.642;2024-03-08T01:18:04;5.78;;;4.22;;
16403;SDS011;8311;50.158;8.642;2024-03-08T01:20:59;6.35;;;4.07;;
16403;SDS011;8311;50.158;8.642;2024-03-08T01:23:52;7.20;;;4.07;;
16403;SDS011;8311;50.158;8.642;2024-03-08T01:26:45;6.00;;;3.83;;
16403;SDS011;8311;50.158;8.642;2024-03-08T01:29:39;6.35;;;4.03;;
16403;SDS011;8311;50.158;8.642;2024-03-08T01:32:33;6.50;;;4.75;;
16403;SDS011;8311;50.158;8.642;2024-03-08T01:35:27;5.63;;;3.72;;
16403;SDS011;8311;50.158;8.642;2024-03-08T01:38:22;6.65;;;4.10;;
16403;SDS011;8311;50.158;8.642;2024-03-08T01:41:15;6.75;;;4.47;;
16403;SDS011;8311;50.158;8.642;2024-03-08T01:44:09;7.63;;;4.47;;
16403;SDS011;8311;50.158;8.642;2024-03-08T01:47:02;6.45;;;4.07;;
16403;SDS011;8311;50.158;8.642;2024-03-08T01:49:56;5.72;;;3.97;;
16403;SDS011;8311;50.158;8.642;2024-03-08T01:52:49;5.07;;;3.55;;
16403;SDS011;8311;50.158;8.642;2024-03-08T01:55:45;6.30;;;4.03;;
16403;SDS011;8311;50.158;8.642;2024-03-08T01:58:41;6.25;;;4.22;;
16403;SDS011;8311;50.158;8.642;2024-03-08T02:01:35;6.28;;;4.00;;
16403;SDS011;8311;50.158;8.642;2024-03-08T02:04:29;5.50;;;3.47;;
16403;SDS011;8311;50.158;8.642;2024-03-08T02:07:23;5.85;;;3.97;;
16403;SDS011;8311;50.158;8.642;2024-03-08T02:10:16;4.80;;;3.33;;
16403;SDS011;8311;50.158;8.642;2024-03-08T02:13:11;5.40;;;3.88;;
16403;SDS011;8311;50.158;8.642;2024-03-08T02:16:04;5.93;;;4.00;;
16403;SDS011;8311;50.158;8.642;2024-03-08T02:18:59;6.00;;;4.18;;
16403;SDS011;8311;50.158;8.642;2024-03-08T02:21:53;6.50;;;4.22;;
16403;SDS011;8311;50.158;8.642;2024-03-08T02:24:47;5.93;;;4.45;;
16403;SDS011;8311;50.158;8.642;2024-03-08T02:27:41;5.72;;;3.90;;
16403;SDS011;8311;50.158;8.642;2024-03-08T02:30:34;6.13;;;3.85;;
16403;SDS011;8311;50.158;8.642;2024-03-08T02:33:28;6.32;;;4.35;;
16403;SDS011;8311;50.158;8.642;2024-03-08T02:36:21;5.75;;;3.83;;
16403;SDS011;8311;50.158;8.642;2024-03-08T02:39:15;5.47;;;3.78;;
16403;SDS011;8311;50.158;8.642;2024-03-08T02:42:11;6.32;;;4.03;;
16403;SDS011;8311;50.158;8.642;2024-03-08T02:45:05;6.90;;;3.83;;
16403;SDS011;8311;50.158;8.642;2024-03-08T02:48:01;6.63;;;4.10;;
16403;SDS011;8311;50.158;8.642;2024-03-08T02:50:55;6.10;;;4.10;;
16403;SDS011;8311;50.158;8.642;2024-03-08T02:53:48;5.38;;;3.72;;
16403;SDS011;8311;50.158;8.642;2024-03-08T02:56:45;6.20;;;4.03;;
16403;SDS011;8311;50.158;8.642;2024-03-08T02:59:38;6.97;;;4.50;;
16403;SDS011;8311;50.158;8.642;2024-03-08T03:02:31;5.40;;;4.25;;
16403;SDS011;8311;50.158;8.642;2024-03-08T03:05:26;5.45;;;3.72;;
16403;SDS011;8311;50.158;8.642;2024-03-08T03:08:19;6.35;;;4.35;;
16403;SDS011;8311;50.158;8.642;2024-03-08T03:11:12;6.35;;;4.15;;
16403;SDS011;8311;50.158;8.642;2024-03-08T03:14:07;6.47;;;4.07;;
16403;SDS011;8311;50.158;8.642;2024-03-08T03:17:00;5.30;;;3.78;;
16403;SDS011;8311;50.158;8.642;2024-03-08T03:19:54;5.75;;;3.88;;
16403;SDS011;8311;50.158;8.642;2024-03-08T03:22:48;5.65;;;4.20;;
16403;SDS011;8311;50.158;8.642;2024-03-08T03:25:43;6.22;;;3.38;;
16403;SDS011;8311;50.158;8.642;2024-03-08T03:28:37;6.63;;;4.28;;
16403;SDS011;8311;50.158;8.642;2024-03-08T03:31:33;5.68;;;4.13;;
16403;SDS011;8311;50.158;8.642;2024-03-08T03:34:26;6.25;;;4.20;;
16403;SDS011;8311;50.158;8.642;2024-03-08T03:37:20;6.20;;;3.88;;
16403;SDS011;8311;50.158;8.642;2024-03-08T03:40:14;7.05;;;4.50;;
16403;SDS011;8311;50.158;8.642;2024-03-08T03:43:10;5.63;;;3.97;;
16403;SDS011;8311;50.158;8.642;2024-03-08T03:46:05;6.00;;;4.32;;
16403;SDS011;8311;50.158;8.642;2024-03-08T03:49:01;6.30;;;4.22;;
16403;SDS011;8311;50.158;8.642;2024-03-08T03:51:55;5.80;;;4.10;;
16403;SDS011;8311;50.158;8.642;2024-03-08T03:54:48;6.38;;;4.15;;
16403;SDS011;8311;50.158;8.642;2024-03-08T03:57:41;6.03;;;4.20;;
16403;SDS011;8311;50.158;8.642;2024-03-08T04:00:37;6.63;;;4.28;;
16403;SDS011;8311;50.158;8.642;2024-03-08T04:03:30;4.95;;;3.60;;
16403;SDS011;8311;50.158;8.642;2024-03-08T04:06:43;5.65;;;4.05;;
16403;SDS011;8311;50.158;8.642;2024-03-08T04:09:36;6.03;;;4.10;;
16403;SDS011;8311;50.158;8.642;2024-03-08T04:12:29;7.07;;;3.80;;
16403;SDS011;8311;50.158;8.642;2024-03-08T04:15:22;6.18;;;4.38;;
16403;SDS011;8311;50.158;8.642;2024-03-08T04:18:15;5.68;;;3.92;;
16403;SDS011;8311;50.158;8.642;2024-03-08T04:21:09;5.38;;;4.00;;
16403;SDS011;8311;50.158;8.642;2024-03-08T04:24:04;6.72;;;4.22;;
16403;SDS011;8311;50.158;8.642;2024-03-08T04:26:58;5.90;;;4.05;;
16403;SDS011;8311;50.158;8.642;2024-03-08T04:29:51;6.22;;;4.03;;
16403;SDS011;8311;50.158;8.642;2024-03-08T04:32:44;5.82;;;4.10;;
16403;SDS011;8311;50.158;8.642;2024-03-08T04:35:37;6.53;;;4.57;;
16403;SDS011;8311;50.158;8.642;2024-03-08T04:38:30;5.90;;;3.72;;
16403;SDS011;8311;50.158;8.642;2024-03-08T04:41:25;5.70;;;4.30;;
16403;SDS011;8311;50.158;8.642;2024-03-08T04:44:18;5.43;;;4.07;;
16403;SDS011;8311;50.158;8.642;2024-03-08T04:47:11;6.07;;;4.13;;
16403;SDS011;8311;50.158;8.642;2024-03-08T04:50:05;6.05;;;4.03;;
16403;SDS011;8311;50.158;8.642;2024-03-08T04:53:00;5.45;;;3.80;;
16403;SDS011;8311;50.158;8.642;2024-03-08T04:55:54;5.70;;;4.03;;
16403;SDS011;8311;50.158;8.642;2024-03-08T04:58:51;6.95;;;4.88;;
16403;SDS011;8311;50.158;8.642;2024-03-08T05:01:44;6.20;;;4.20;;
16403;SDS011;8311;50.158;8.642;2024-03-08T05:04:38;6.10;;;4.15;;
16403;SDS011;8311;50.158;8.642;2024-03-08T05:07:31;6.30;;;4.78;;
16403;SDS011;8311;50.158;8.642;2024-03-08T05:10:25;6.35;;;4.65;;
16403;SDS011;8311;50.158;8.642;2024-03-08T05:13:18;7.03;;;4.13;;
16403;SDS011;8311;50.158;8.642;2024-03-08T05:16:12;6.32;;;4.25;;
16403;SDS011;8311;50.158;8.642;2024-03-08T05:19:06;6.45;;;4.60;;
16403;SDS011;8311;50.158;8.642;2024-03-08T05:21:59;5.75;;;4.13;;
16403;SDS011;8311;50.158;8.642;2024-03-08T05:24:52;6.32;;;4.55;;
16403;SDS011;8311;50.158;8.642;2024-03-08T05:27:45;5.45;;;4.18;;
16403;SDS011;8311;50.158;8.642;2024-03-08T05:30:38;5.65;;;4.22;;
16403;SDS011;8311;50.158;8.642;2024-03-08T05:33:33;6.75;;;4.53;;
16403;SDS011;8311;50.158;8.642;2024-03-08T05:36:26;6.72;;;4.70;;
16403;SDS011;8311;50.158;8.642;2024-03-08T05:39:19;6.57;;;4.15;;
16403;SDS011;8311;50.158;8.642;2024-03-08T05:42:12;6.78;;;4.43;;
16403;SDS011;8311;50.158;8.642;2024-03-08T05:45:06;6.07;;;4.30;;
16403;SDS011;8311;50.158;8.642;2024-03-08T05:48:01;6.28;;;3.90;;
16403;SDS011;8311;50.158;8.642;2024-03-08T05:50:56;6.00;;;4.10;;
16403;SDS011;8311;50.158;8.642;2024-03-08T05:53:49;7.45;;;4.65;;
16403;SDS011;8311;50.158;8.642;2024-03-08T05:56:44;5.82;;;4.75;;
16403;SDS011;8311;50.158;8.642;2024-03-08T05:59:38;6.38;;;4.68;;
16403;SDS011;8311;50.158;8.642;2024-03-08T06:02:31;5.88;;;4.32;;
16403;SDS011;8311;50.158;8.642;2024-03-08T06:05:25;6.22;;;4.22;;
16403;SDS011;8311;50.158;8.642;2024-03-08T06:08:20;6.13;;;4.03;;
16403;SDS011;8311;50.158;8.642;2024-03-08T06:11:13;6.20;;;4.07;;
16403;SDS011;8311;50.158;8.642;2024-03-08T06:14:08;6.05;;;4.53;;
16403;SDS011;8311;50.158;8.642;2024-03-08T06:17:01;6.80;;;5.07;;
16403;SDS011;8311;50.158;8.642;2024-03-08T06:19:54;5.90;;;3.88;;
16403;SDS011;8311;50.158;8.642;2024-03-08T06:22:47;6.45;;;4.47;;
16403;SDS011;8311;50.158;8.642;2024-03-08T06:25:41;6.78;;;4.53;;
16403;SDS011;8311;50.158;8.642;2024-03-08T06:28:34;6.07;;;4.47;;
16403;SDS011;8311;50.158;8.642;2024-03-08T06:31:27;6.50;;;4.68;;
16403;SDS011;8311;50.158;8.642;2024-03-08T06:34:20;6.10;;;4.45;;
16403;SDS011;8311;50.158;8.642;2024-03-08T06:37:13;7.22;;;4.75;;
16403;SDS011;8311;50.158;8.642;2024-03-08T06:40:07;6.53;;;4.10;;
16403;SDS011;8311;50.158;8.642;2024-03-08T06:43:06;6.65;;;4.22;;
16403;SDS011;8311;50.158;8.642;2024-03-08T06:45:59;8.10;;;4.00;;
16403;SDS011;8311;50.158;8.642;2024-03-08T06:48:52;6.05;;;4.18;;
16403;SDS011;8311;50.158;8.642;2024-03-08T06:51:46;8.95;;;4.15;;
16403;SDS011;8311;50.158;8.642;2024-03-08T06:54:39;6.38;;;4.65;;
16403;SDS011;8311;50.158;8.642;2024-03-08T06:57:32;6.78;;;4.60;;
16403;SDS011;8311;50.158;8.642;2024-03-08T07:00:27;5.47;;;4.03;;
16403;SDS011;8311;50.158;8.642;2024-03-08T07:03:21;5.47;;;4.07;;
16403;SDS011;8311;50.158;8.642;2024-03-08T07:06:14;5.97;;;4.18;;
16403;SDS011;8311;50.158;8.642;2024-03-08T07:09:11;5.90;;;4.38;;
16403;SDS011;8311;50.158;8.642;2024-03-08T07:12:08;5.38;;;3.88;;
16403;SDS011;8311;50.158;8.642;2024-03-08T07:15:02;6.40;;;4.20;;
16403;SDS011;8311;50.158;8.642;2024-03-08T07:17:57;6.90;;;4.50;;
16403;SDS011;8311;50.158;8.642;2024-03-08T07:20:52;6.55;;;4.43;;
16403;SDS011;8311;50.158;8.642;2024-03-08T07:23:45;6.78;;;4.60;;
16403;SDS011;8311;50.158;8.642;2024-03-08T07:26:45;6.38;;;4.60;;
16403;SDS011;8311;50.158;8.642;2024-03-08T07:29:40;6.72;;;4.60;;
16403;SDS011;8311;50.158;8.642;2024-03-08T07:32:33;5.97;;;4.10;;
16403;SDS011;8311;50.158;8.642;2024-03-08T07:35:28;6.25;;;4.15;;
16403;SDS011;8311;50.158;8.642;2024-03-08T07:38:22;7.15;;;4.88;;
16403;SDS011;8311;50.158;8.642;2024-03-08T07:41:15;6.32;;;4.65;;
16403;SDS011;8311;50.158;8.642;2024-03-08T07:44:08;6.97;;;4.93;;
16403;SDS011;8311;50.158;8.642;2024-03-08T07:47:02;5.82;;;4.18;;
16403;SDS011;8311;50.158;8.642;2024-03-08T07:49:56;5.85;;;3.97;;
16403;SDS011;8311;50.158;8.642;2024-03-08T07:52:54;6.78;;;4.55;;
16403;SDS011;8311;50.158;8.642;2024-03-08T07:55:47;6.57;;;4.22;;
16403;SDS011;8311;50.158;8.642;2024-03-08T07:58:40;6.28;;;4.50;;
16403;SDS011;8311;50.158;8.642;2024-03-08T08:01:34;5.60;;;3.67;;
16403;SDS011;8311;50.158;8.642;2024-03-08T08:04:28;6.97;;;4.68;;
16403;SDS011;8311;50.158;8.642;2024-03-08T08:07:21;6.60;;;4.25;;
16403;SDS011;8311;50.158;8.642;2024-03-08T08:10:17;5.93;;;4.43;;
16403;SDS011;8311;50.158;8.642;2024-03-08T08:13:13;5.60;;;3.65;;
16403;SDS011;8311;50.158;8.642;2024-03-08T08:16:06;6.57;;;4.30;;
16403;SDS011;8311;50.158;8.642;2024-03-08T08:18:59;6.30;;;4.10;;
16403;SDS011;8311;50.158;8.642;2024-03-08T08:21:55;6.05;;;4.15;;
16403;SDS011;8311;50.158;8.642;2024-03-08T08:24:48;6.88;;;4.97;;
16403;SDS011;8311;50.158;8.642;2024-03-08T08:27:44;6.20;;;4.13;;
16403;SDS011;8311;50.158;8.642;2024-03-08T08:30:37;5.72;;;3.75;;
16403;SDS011;8311;50.158;8.642;2024-03-08T08:33:30;6.28;;;3.88;;
16403;SDS011;8311;50.158;8.642;2024-03-08T08:36:26;6.97;;;4.28;;
16403;SDS011;8311;50.158;8.642;2024-03-08T08:39:22;6.20;;;3.92;;
16403;SDS011;8311;50.158;8.642;2024-03-08T08:42:17;6.78;;;4.40;;
16403;SDS011;8311;50.158;8.642;2024-03-08T08:45:12;5.95;;;4.18;;
16403;SDS011;8311;50.158;8.642;2024-03-08T08:48:08;5.00;;;3.75;;
16403;SDS011;8311;50.158;8.642;2024-03-08T08:51:03;5.30;;;4.07;;
16403;SDS011;8311;50.158;8.642;2024-03-08T08:53:58;5.90;;;4.32;;
16403;SDS011;8311;50.158;8.642;2024-03-08T08:56:50;5.10;;;3.78;;
16403;SDS011;8311;50.158;8.642;2024-03-08T08:59:44;6.43;;;4.50;;
16403;SDS011;8311;50.158;8.642;2024-03-08T09:02:39;6.18;;;4.40;;
16403;SDS011;8311;50.158;8.642;2024-03-08T09:05:32;6.25;;;4.32;;
16403;SDS011;8311;50.158;8.642;2024-03-08T09:08:30;5.40;;;3.80;;
16403;SDS011;8311;50.158;8.642;2024-03-08T09:11:24;6.30;;;3.92;;
16403;SDS011;8311;50.158;8.642;2024-03-08T09:14:17;5.78;;;4.15;;
16403;SDS011;8311;50.158;8.642;2024-03-08T09:17:11;5.50;;;4.25;;
16403;SDS011;8311;50.158;8.642;2024-03-08T09:20:10;6.25;;;4.50;;
16403;SDS011;8311;50.158;8.642;2024-03-08T09:23:06;5.57;;;4.07;;
16403;SDS011;8311;50.158;8.642;2024-03-08T09:26:00;5.68;;;4.13;;
16403;SDS011;8311;50.158;8.642;2024-03-08T09:28:56;6.18;;;4.28;;
16403;SDS011;8311;50.158;8.642;2024-03-08T09:31:49;5.78;;;4.20;;
16403;SDS011;8311;50.158;8.642;2024-03-08T09:34:42;5.78;;;3.92;;
16403;SDS011;8311;50.158;8.642;2024-03-08T09:37:37;7.18;;;4.25;;
16403;SDS011;8311;50.158;8.642;2024-03-08T09:40:29;5.55;;;3.90;;
16403;SDS011;8311;50.158;8.642;2024-03-08T09:43:24;7.40;;;4.60;;
16403;SDS011;8311;50.158;8.642;2024-03-08T09:46:18;6.28;;;3.90;;
16403;SDS011;8311;50.158;8.642;2024-03-08T09:49:16;5.07;;;3.72;;
16403;SDS011;8311;50.158;8.642;2024-03-08T09:52:10;5.57;;;3.90;;
16403;SDS011;8311;50.158;8.642;2024-03-08T09:55:06;6.18;;;4.00;;
16403;SDS011;8311;50.158;8.642;2024-03-08T09:57:59;5.28;;;3.90;;
16403;SDS011;8311;50.158;8.642;2024-03-08T10:01:27;5.53;;;4.20;;
16403;SDS011;8311;50.158;8.642;2024-03-08T10:04:20;5.85;;;3.95;;
16403;SDS011;8311;50.158;8.642;2024-03-08T10:07:14;5.00;;;3.75;;
16403;SDS011;8311;50.158;8.642;2024-03-08T10:10:09;5.18;;;3.53;;
16403;SDS011;8311;50.158;8.642;2024-03-08T10:13:06;5.63;;;3.90;;
16403;SDS011;8311;50.158;8.642;2024-03-08T10:16:00;5.35;;;3.80;;
16403;SDS011;8311;50.158;8.642;2024-03-08T10:18:56;6.10;;;4.32;;
16403;SDS011;8311;50.158;8.642;2024-03-08T10:21:50;6.35;;;3.97;;
16403;SDS011;8311;50.158;8.642;2024-03-08T10:24:46;6.10;;;4.22;;
16403;SDS011;8311;50.158;8.642;2024-03-08T10:27:41;5.60;;;4.00;;
16403;SDS011;8311;50.158;8.642;2024-03-08T10:30:34;5.85;;;4.18;;
16403;SDS011;8311;50.158;8.642;2024-03-08T10:33:27;5.32;;;3.78;;
16403;SDS011;8311;50.158;8.642;2024-03-08T10:36:19;5.68;;;4.47;;
16403;SDS011;8311;50.158;8.642;2024-03-08T10:39:15;6.32;;;4.47;;
16403;SDS011;8311;50.158;8.642;2024-03-08T10:42:15;5.68;;;4.10;;
16403;SDS011;8311;50.158;8.642;2024-03-08T10:45:13;5.13;;;3.92;;
16403;SDS011;8311;50.158;8.642;2024-03-08T10:48:10;5.60;;;3.80;;
16403;SDS011;8311;50.158;8.642;2024-03-08T10:51:28;7.50;;;4.32;;
16403;SDS011;8311;50.158;8.642;2024-03-08T10:54:22;6.03;;;4.57;;
16403;SDS011;8311;50.158;8.642;2024-03-08T10:57:18;5.47;;;3.72;;
16403;SDS011;8311;50.158;8.642;2024-03-08T11:00:13;6.18;;;3.97;;
16403;SDS011;8311;50.158;8.642;2024-03-08T11:03:09;6.13;;;3.90;;
16403;SDS011;8311;50.158;8.642;2024-03-08T11:06:44;5.28;;;3.78;;
16403;SDS011;8311;50.158;8.642;2024-03-08T11:09:38;5.22;;;4.00;;
16403;SDS011;8311;50.158;8.642;2024-03-08T11:12:35;5.35;;;3.80;;
16403;SDS011;8311;50.158;8.642;2024-03-08T11:15:31;5.82;;;4.05;;
16403;SDS011;8311;50.158;8.642;2024-03-08T11:18:25;5.63;;;3.90;;
16403;SDS011;8311;50.158;8.642;2024-03-08T11:21:18;6.28;;;4.25;;
16403;SDS011;8311;50.158;8.642;2024-03-08T11:24:14;6.22;;;3.70;;
16403;SDS011;8311;50.158;8.642;2024-03-08T11:27:08;6.22;;;4.30;;
16403;SDS011;8311;50.158;8.642;2024-03-08T11:30:03;5.43;;;3.90;;
16403;SDS011;8311;50.158;8.642;2024-03-08T11:33:12;6.03;;;3.85;;
16403;SDS011;8311;50.158;8.642;2024-03-08T11:36:07;5.13;;;3.70;;
16403;SDS011;8311;50.158;8.642;2024-03-08T11:39:04;5.15;;;3.72;;
16403;SDS011;8311;50.158;8.642;2024-03-08T11:42:06;5.57;;;3.88;;
16403;SDS011;8311;50.158;8.642;2024-03-08T11:45:00;4.82;;;3.72;;
16403;SDS011;8311;50.158;8.642;2024-03-08T11:47:55;5.53;;;3.95;;
16403;SDS011;8311;50.158;8.642;2024-03-08T11:50:59;4.80;;;3.80;;
16403;SDS011;8311;50.158;8.642;2024-03-08T11:53:55;5.18;;;3.97;;
16403;SDS011;8311;50.158;8.642;2024-03-08T11:56:48;5.40;;;3.78;;
16403;SDS011;8311;50.158;8.642;2024-03-08T11:59:49;5.40;;;4.00;;
16403;SDS011;8311;50.158;8.642;2024-03-08T12:03:00;4.75;;;3.30;;
16403;SDS011;8311;50.158;8.642;2024-03-08T12:05:56;5.38;;;3.88;;
16403;SDS011;8311;50.158;8.642;2024-03-08T12:08:52;5.25;;;3.78;;
16403;SDS011;8311;50.158;8.642;2024-03-08T12:11:47;4.60;;;3.63;;
16403;SDS011;8311;50.158;8.642;2024-03-08T12:14:42;5.32;;;3.95;;
16403;SDS011;8311;50.158;8.642;2024-03-08T12:17:37;4.88;;;3.72;;
16403;SDS011;8311;50.158;8.642;2024-03-08T12:20:31;4.72;;;3.55;;
16403;SDS011;8311;50.158;8.642;2024-03-08T12:23:25;4.80;;;3.55;;
16403;SDS011;8311;50.158;8.642;2024-03-08T12:26:24;5.28;;;3.97;;
16403;SDS011;8311;50.158;8.642;2024-03-08T12:29:18;4.80;;;3.50;;
16403;SDS011;8311;50.158;8.642;2024-03-08T12:32:13;5.63;;;4.22;;
16403;SDS011;8311;50.158;8.642;2024-03-08T12:35:08;5.00;;;3.88;;
16403;SDS011;8311;50.158;8.642;2024-03-08T12:38:01;5.25;;;3.88;;
16403;SDS011;8311;50.158;8.642;2024-03-08T12:40:55;4.72;;;3.60;;
16403;SDS011;8311;50.158;8.642;2024-03-08T12:43:52;4.82;;;3.72;;
16403;SDS011;8311;50.158;8.642;2024-03-08T12:46:45;4.88;;;3.63;;
16403;SDS011;8311;50.158;8.642;2024-03-08T12:49:40;5.45;;;3.72;;
16403;SDS011;8311;50.158;8.642;2024-03-08T12:52:33;4.68;;;3.45;;
16403;SDS011;8311;50.158;8.642;2024-03-08T12:55:26;5.20;;;3.70;;
16403;SDS011;8311;50.158;8.642;2024-03-08T12:58:20;5.78;;;4.10;;
16403;SDS011;8311;50.158;8.642;2024-03-08T13:01:14;5.60;;;3.80;;
16403;SDS011;8311;50.158;8.642;2024-03-08T13:04:09;5.13;;;3.85;;
16403;SDS011;8311;50.158;8.642;2024-03-08T13:07:02;4.13;;;3.47;;
16403;SDS011;8311;50.158;8.642;2024-03-08T13:09:55;5.35;;;3.75;;
16403;SDS011;8311;50.158;8.642;2024-03-08T13:12:50;5.05;;;3.53;;
16403;SDS011;8311;50.158;8.642;2024-03-08T13:15:45;5.43;;;4.00;;
16403;SDS011;8311;50.158;8.642;2024-03-08T13:18:39;5.28;;;3.92;;
16403;SDS011;8311;50.158;8.642;2024-03-08T13:21:32;5.10;;;3.80;;
16403;SDS011;8311;50.158;8.642;2024-03-08T13:24:27;4.35;;;3.58;;
16403;SDS011;8311;50.158;8.642;2024-03-08T13:27:22;4.45;;;3.38;;
16403;SDS011;8311;50.158;8.642;2024-03-08T13:30:17;5.90;;;3.60;;
16403;SDS011;8311;50.158;8.642;2024-03-08T13:33:15;4.68;;;3.63;;
16403;SDS011;8311;50.158;8.642;2024-03-08T13:36:10;3.47;;;2.80;;
16403;SDS011;8311;50.158;8.642;2024-03-08T13:39:06;5.35;;;4.03;;
16403;SDS011;8311;50.158;8.642;2024-03-08T13:42:06;6.38;;;4.32;;
16403;SDS011;8311;50.158;8.642;2024-03-08T13:45:01;5.07;;;3.80;;
16403;SDS011;8311;50.158;8.642;2024-03-08T13:47:56;5.30;;;4.03;;
16403;SDS011;8311;50.158;8.642;2024-03-08T13:50:49;5.03;;;3.63;;
16403;SDS011;8311;50.158;8.642;2024-03-08T13:53:44;5.30;;;3.75;;
16403;SDS011;8311;50.158;8.642;2024-03-08T13:56:36;4.70;;;3.70;;
16403;SDS011;8311;50.158;8.642;2024-03-08T13:59:30;4.15;;;3.15;;
16403;SDS011;8311;50.158;8.642;2024-03-08T14:02:24;5.43;;;4.15;;
16403;SDS011;8311;50.158;8.642;2024-03-08T14:05:20;5.88;;;4.13;;
16403;SDS011;8311;50.158;8.642;2024-03-08T14:08:13;4.93;;;3.50;;
16403;SDS011;8311;50.158;8.642;2024-03-08T14:11:09;4.88;;;3.35;;
16403;SDS011;8311;50.158;8.642;2024-03-08T14:14:04;4.65;;;3.15;;
16403;SDS011;8311;50.158;8.642;2024-03-08T14:16:58;4.70;;;3.47;;
16403;SDS011;8311;50.158;8.642;2024-03-08T14:19:51;4.97;;;3.40;;
16403;SDS011;8311;50.158;8.642;2024-03-08T14:22:44;5.63;;;3.72;;
16403;SDS011;8311;50.158;8.642;2024-03-08T14:25:38;4.50;;;3.53;;
16403;SDS011;8311;50.158;8.642;2024-03-08T14:28:32;4.97;;;3.50;;
16403;SDS011;8311;50.158;8.642;2024-03-08T14:31:26;4.88;;;3.58;;
16403;SDS011;8311;50.158;8.642;2024-03-08T14:34:19;5.30;;;3.70;;
16403;SDS011;8311;50.158;8.642;2024-03-08T14:37:13;4.90;;;3.70;;
16403;SDS011;8311;50.158;8.642;2024-03-08T14:40:06;4.82;;;3.55;;
16403;SDS011;8311;50.158;8.642;2024-03-08T14:43:00;5.20;;;3.50;;
16403;SDS011;8311;50.158;8.642;2024-03-08T14:45:58;4.28;;;3.13;;
16403;SDS011;8311;50.158;8.642;2024-03-08T14:48:51;5.35;;;3.70;;
16403;SDS011;8311;50.158;8.642;2024-03-08T14:51:44;5.03;;;3.53;;
16403;SDS011;8311;50.158;8.642;2024-03-08T14:54:37;5.00;;;3.53;;
16403;SDS011;8311;50.158;8.642;2024-03-08T14:57:30;4.60;;;3.25;;
16403;SDS011;8311;50.158;8.642;2024-03-08T15:00:24;4.57;;;3.25;;
16403;SDS011;8311;50.158;8.642;2024-03-08T15:03:26;4.28;;;3.28;;
16403;SDS011;8311;50.158;8.642;2024-03-08T15:06:20;4.82;;;3.40;;
16403;SDS011;8311;50.158;8.642;2024-03-08T15:09:14;4.15;;;3.38;;
16403;SDS011;8311;50.158;8.642;2024-03-08T15:12:10;4.88;;;3.30;;
16403;SDS011;8311;50.158;8.642;2024-03-08T15:15:03;4.30;;;3.15;;
16403;SDS011;8311;50.158;8.642;2024-03-08T15:17:59;5.10;;;3.15;;
16403;SDS011;8311;50.158;8.642;2024-03-08T15:20:56;5.20;;;3.20;;
16403;SDS011;8311;50.158;8.642;2024-03-08T15:23:49;4.75;;;3.30;;
16403;SDS011;8311;50.158;8.642;2024-03-08T15:26:44;4.65;;;3.20;;
16403;SDS011;8311;50.158;8.642;2024-03-08T15:29:42;4.35;;;3.10;;
16403;SDS011;8311;50.158;8.642;2024-03-08T15:32:39;4.85;;;3.65;;
16403;SDS011;8311;50.158;8.642;2024-03-08T15:35:37;4.80;;;2.90;;
16403;SDS011;8311;50.158;8.642;2024-03-08T15:38:32;4.88;;;3.47;;
16403;SDS011;8311;50.158;8.642;2024-03-08T15:41:25;5.03;;;3.38;;
16403;SDS011;8311;50.158;8.642;2024-03-08T15:44:18;5.53;;;3.30;;
16403;SDS011;8311;50.158;8.642;2024-03-08T15:47:12;5.20;;;3.28;;
16403;SDS011;8311;50.158;8.642;2024-03-08T15:50:06;5.47;;;3.60;;
16403;SDS011;8311;50.158;8.642;2024-03-08T15:53:03;4.00;;;2.80;;
16403;SDS011;8311;50.158;8.642;2024-03-08T15:55:58;5.13;;;3.53;;
16403;SDS011;8311;50.158;8.642;2024-03-08T15:58:52;5.55;;;3.50;;
16403;SDS011;8311;50.158;8.642;2024-03-08T16:01:46;4.97;;;3.53;;
16403;SDS011;8311;50.158;8.642;2024-03-08T16:04:43;4.57;;;2.97;;
16403;SDS011;8311;50.158;8.642;2024-03-08T16:07:37;6.13;;;3.40;;
16403;SDS011;8311;50.158;8.642;2024-03-08T16:10:31;4.95;;;3.13;;
16403;SDS011;8311;50.158;8.642;2024-03-08T16:13:26;5.00;;;3.55;;
16403;SDS011;8311;50.158;8.642;2024-03-08T16:16:20;4.88;;;3.35;;
16403;SDS011;8311;50.158;8.642;2024-03-08T16:19:13;4.72;;;3.30;;
16403;SDS011;8311;50.158;8.642;2024-03-08T16:22:06;4.05;;;2.97;;
16403;SDS011;8311;50.158;8.642;2024-03-08T16:24:59;4.93;;;3.40;;
16403;SDS011;8311;50.158;8.642;2024-03-08T16:27:52;4.50;;;3.25;;
16403;SDS011;8311;50.158;8.642;2024-03-08T16:30:46;4.20;;;3.00;;
16403;SDS011;8311;50.158;8.642;2024-03-08T16:33:40;5.05;;;3.55;;
16403;SDS011;8311;50.158;8.642;2024-03-08T16:36:33;5.13;;;3.47;;
16403;SDS011;8311;50.158;8.642;2024-03-08T16:39:28;5.38;;;3.10;;
16403;SDS011;8311;50.158;8.642;2024-03-08T16:42:21;5.00;;;3.53;;
16403;SDS011;8311;50.158;8.642;2024-03-08T16:45:15;4.85;;;3.60;;
16403;SDS011;8311;50.158;8.642;2024-03-08T16:48:09;4.60;;;3.38;;
16403;SDS011;8311;50.158;8.642;2024-03-08T16:51:03;4.30;;;3.20;;
16403;SDS011;8311;50.158;8.642;2024-03-08T16:54:00;4.05;;;2.85;;
16403;SDS011;8311;50.158;8.642;2024-03-08T16:56:53;4.32;;;2.70;;
16403;SDS011;8311;50.158;8.642;2024-03-08T16:59:46;4.22;;;3.10;;
16403;SDS011;8311;50.158;8.642;2024-03-08T17:02:40;5.10;;;3.42;;
16403;SDS011;8311;50.158;8.642;2024-03-08T17:05:35;9.82;;;5.35;;
16403;SDS011;8311;50.158;8.642;2024-03-08T17:08:29;8.05;;;5.50;;
16403;SDS011;8311;50.158;8.642;2024-03-08T17:11:23;8.52;;;4.60;;
16403;SDS011;8311;50.158;8.642;2024-03-08T17:14:16;8.05;;;4.60;;
16403;SDS011;8311;50.158;8.642;2024-03-08T17:17:11;7.25;;;5.38;;
16403;SDS011;8311;50.158;8.642;2024-03-08T17:20:04;6.40;;;4.65;;
16403;SDS011;8311;50.158;8.642;2024-03-08T17:23:06;8.90;;;5.60;;
16403;SDS011;8311;50.158;8.642;2024-03-08T17:26:05;8.93;;;4.85;;
16403;SDS011;8311;50.158;8.642;2024-03-08T17:29:00;9.60;;;4.60;;
16403;SDS011;8311;50.158;8.642;2024-03-08T17:31:54;7.53;;;5.10;;
16403;SDS011;8311;50.158;8.642;2024-03-08T17:34:47;7.57;;;5.43;;
16403;SDS011;8311;50.158;8.642;2024-03-08T17:37:41;10.45;;;5.43;;
16403;SDS011;8311;50.158;8.642;2024-03-08T17:40:39;7.88;;;4.57;;
16403;SDS011;8311;50.158;8.642;2024-03-08T17:43:34;9.07;;;4.80;;
16403;SDS011;8311;50.158;8.642;2024-03-08T17:46:28;7.90;;;5.22;;
16403;SDS011;8311;50.158;8.642;2024-03-08T17:49:21;9.00;;;5.22;;